Terminal Aerodrome Forecast
Issued by NWS

Home | Current Version | Previous Version | Text Only | Print | Product List | Glossary On
Versions: 1 2 3 4 5 6 7 8 9 10 11 12 13 14 15
000
FTUS43 KOAX 251120
TAFSNY
TAF
KSNY 251120Z 2512/2612 30012G20KT P6SM SCT050 BKN080
     FM251600 31018G30KT P6SM SCT080
     FM260200 29015G25KT P6SM SCT080=

USA.gov is the U.S. government's official web portal to all federal, state and local government web resources and services.